Pagina principale
METAR-TAF:

METAR-TAF

Aeroporti :

Aeroporto di Perugia

Perugia, Italia

latitudine: 43-05N, longitudine: 012-30E, altezza: 208 m

Osservazione

Il bollettino è stato emesso 31 minuti fa, alle 22:20 UTC
Vento 5 kt da nord/nord-est, variando fra nord/nord-ovest e nord/nord-est
Temperature 2°C
Umidità 87%
Pressione 1022 hPa
Visibilità 10 km o più

METAR: LIRZ 212220Z AUTO 03005KT 330V030 9999 NCD 02/00 Q1022

Ora: 23:51 (22:51 UTC)

Previsione

Il bollettino è stato emesso 5 ore e 51 minuti fa, alle 17:00 UTC
Previsione valida dal 21 alle 18 UTC al 22 alle 18 UTC
Vento 4 kt da direzioni variabili
Visibilità 10 km o più
Poco nuvoloso ad un'altezza di 3000 ft
Evoluzione graduale
dal 22 alle 10 UTC al 22 alle 12 UTC
Vento 11 kt da sud/sud-ovest
Temporaneamente
dal 22 alle 12 UTC al 22 alle 18 UTC
Vento 15 kt da sud/sud-ovest con raffiche fino a 25 kt

TAF: LIRZ 211700Z 2118/2218 VRB04KT 9999 FEW030 BECMG 2210/2212 20011KT TEMPO 2212/2218 20015G25KT

Osservazioni e previsioni meteorologiche di più di 4000 aeroporti (messaggi METAR e TAF).

Le stazioni disponibili sono rappresentate dai dischi gialli e rossi sulla carta.

Puntare il mouse per vedere il nome della stazione.

Clicca sopra per visualizzare le osservazioni e previsioni meteorologiche.

Per cambiare la mappa : fare clic sui pulsanti verdi con una croce nera per ingrandire, il pulsante verde con un trattino per diminuire, o sulla freccia verde per le mappe adiacenti.


METAR-TAF: